sensor_id;sensor_type;location;lat;lon;timestamp;pressure;altitude;pressure_sealevel;temperature
69857;BMP280;57147;53.582;10.112;2023-08-01T00:00:03;100663.75;;;16.20
69857;BMP280;57147;53.582;10.112;2023-08-01T00:05:07;100633.47;;;15.95
69857;BMP280;57147;53.582;10.112;2023-08-01T00:10:08;100688.53;;;16.29
69857;BMP280;57147;53.582;10.112;2023-08-01T00:15:09;100665.31;;;16.21
69857;BMP280;57147;53.582;10.112;2023-08-01T00:20:13;100654.03;;;16.28
69857;BMP280;57147;53.582;10.112;2023-08-01T00:25:14;100633.63;;;16.35
69857;BMP280;57147;53.582;10.112;2023-08-01T00:30:14;100631.38;;;16.37
69857;BMP280;57147;53.582;10.112;2023-08-01T00:35:18;100664.69;;;16.48
69857;BMP280;57147;53.582;10.112;2023-08-01T00:40:19;100668.81;;;16.46
69857;BMP280;57147;53.582;10.112;2023-08-01T00:45:19;100688.78;;;16.36
69857;BMP280;57147;53.582;10.112;2023-08-01T00:50:24;100680.97;;;16.31
69857;BMP280;57147;53.582;10.112;2023-08-01T00:55:24;100704.50;;;16.26
69857;BMP280;57147;53.582;10.112;2023-08-01T01:00:26;100704.81;;;16.24
69857;BMP280;57147;53.582;10.112;2023-08-01T01:05:31;100676.91;;;16.01
69857;BMP280;57147;53.582;10.112;2023-08-01T01:10:33;100734.28;;;16.24
69857;BMP280;57147;53.582;10.112;2023-08-01T01:15:33;100742.53;;;16.19
69857;BMP280;57147;53.582;10.112;2023-08-01T01:20:37;100743.44;;;16.23
69857;BMP280;57147;53.582;10.112;2023-08-01T01:25:37;100752.84;;;16.29
69857;BMP280;57147;53.582;10.112;2023-08-01T01:30:40;100785.41;;;16.19
69857;BMP280;57147;53.582;10.112;2023-08-01T01:35:44;100763.69;;;16.12
69857;BMP280;57147;53.582;10.112;2023-08-01T01:40:45;100782.91;;;16.35
69857;BMP280;57147;53.582;10.112;2023-08-01T01:45:45;100790.16;;;16.46
69857;BMP280;57147;53.582;10.112;2023-08-01T01:50:48;100806.41;;;16.50
69857;BMP280;57147;53.582;10.112;2023-08-01T01:55:49;100802.47;;;16.47
69857;BMP280;57147;53.582;10.112;2023-08-01T02:00:50;100799.78;;;16.47
69857;BMP280;57147;53.582;10.112;2023-08-01T02:05:53;100794.69;;;16.54
69857;BMP280;57147;53.582;10.112;2023-08-01T02:10:53;100796.78;;;16.49
69857;BMP280;57147;53.582;10.112;2023-08-01T02:15:54;100807.19;;;16.50
69857;BMP280;57147;53.582;10.112;2023-08-01T02:20:57;100819.44;;;16.51
69857;BMP280;57147;53.582;10.112;2023-08-01T02:25:58;100809.88;;;16.30
69857;BMP280;57147;53.582;10.112;2023-08-01T02:30:58;100824.56;;;16.44
69857;BMP280;57147;53.582;10.112;2023-08-01T02:36:02;100821.50;;;16.34
69857;BMP280;57147;53.582;10.112;2023-08-01T02:41:02;100842.88;;;16.42
69857;BMP280;57147;53.582;10.112;2023-08-01T02:46:03;100852.94;;;16.45
69857;BMP280;57147;53.582;10.112;2023-08-01T02:51:06;100855.44;;;16.50
69857;BMP280;57147;53.582;10.112;2023-08-01T02:56:07;100847.44;;;16.42
69857;BMP280;57147;53.582;10.112;2023-08-01T03:01:08;100830.22;;;16.31
69857;BMP280;57147;53.582;10.112;2023-08-01T03:06:11;100849.41;;;16.33
69857;BMP280;57147;53.582;10.112;2023-08-01T03:11:11;100859.81;;;16.34
69857;BMP280;57147;53.582;10.112;2023-08-01T03:16:12;100889.56;;;16.41
69857;BMP280;57147;53.582;10.112;2023-08-01T03:21:15;100870.38;;;16.51
69857;BMP280;57147;53.582;10.112;2023-08-01T03:26:16;100870.91;;;16.45
69857;BMP280;57147;53.582;10.112;2023-08-01T03:31:17;100870.34;;;16.39
69857;BMP280;57147;53.582;10.112;2023-08-01T03:36:20;100869.28;;;16.32
69857;BMP280;57147;53.582;10.112;2023-08-01T03:41:20;100867.56;;;16.27
69857;BMP280;57147;53.582;10.112;2023-08-01T03:46:21;100849.03;;;16.22
69857;BMP280;57147;53.582;10.112;2023-08-01T03:51:24;100868.13;;;16.41
69857;BMP280;57147;53.582;10.112;2023-08-01T03:56:25;100864.59;;;16.29
69857;BMP280;57147;53.582;10.112;2023-08-01T04:01:25;100866.00;;;16.47
69857;BMP280;57147;53.582;10.112;2023-08-01T04:06:28;100847.09;;;16.31
69857;BMP280;57147;53.582;10.112;2023-08-01T04:11:29;100859.50;;;16.36
69857;BMP280;57147;53.582;10.112;2023-08-01T04:16:30;100873.69;;;16.36
69857;BMP280;57147;53.582;10.112;2023-08-01T04:21:33;100878.44;;;16.31
69857;BMP280;57147;53.582;10.112;2023-08-01T04:26:33;100868.63;;;16.35
69857;BMP280;57147;53.582;10.112;2023-08-01T04:31:34;100866.28;;;16.33
69857;BMP280;57147;53.582;10.112;2023-08-01T04:36:37;100857.34;;;16.29
69857;BMP280;57147;53.582;10.112;2023-08-01T04:41:38;100866.41;;;16.37
69857;BMP280;57147;53.582;10.112;2023-08-01T04:46:38;100862.50;;;16.34
69857;BMP280;57147;53.582;10.112;2023-08-01T04:51:41;100869.94;;;16.49
69857;BMP280;57147;53.582;10.112;2023-08-01T04:56:42;100841.25;;;16.29
69857;BMP280;57147;53.582;10.112;2023-08-01T05:01:43;100866.19;;;16.42
69857;BMP280;57147;53.582;10.112;2023-08-01T05:06:46;100863.91;;;16.32
69857;BMP280;57147;53.582;10.112;2023-08-01T05:11:46;100877.25;;;16.40
69857;BMP280;57147;53.582;10.112;2023-08-01T05:16:47;100881.72;;;16.36
69857;BMP280;57147;53.582;10.112;2023-08-01T05:21:50;100870.41;;;16.31
69857;BMP280;57147;53.582;10.112;2023-08-01T05:26:51;100890.41;;;16.33
69857;BMP280;57147;53.582;10.112;2023-08-01T05:31:51;100887.00;;;16.45
69857;BMP280;57147;53.582;10.112;2023-08-01T05:36:55;100861.31;;;16.23
69857;BMP280;57147;53.582;10.112;2023-08-01T05:41:56;100871.41;;;16.26
69857;BMP280;57147;53.582;10.112;2023-08-01T05:46:56;100888.78;;;16.41
69857;BMP280;57147;53.582;10.112;2023-08-01T05:51:59;100880.00;;;16.32
69857;BMP280;57147;53.582;10.112;2023-08-01T05:57:00;100895.03;;;16.45
69857;BMP280;57147;53.582;10.112;2023-08-01T06:02:01;100881.56;;;16.33
69857;BMP280;57147;53.582;10.112;2023-08-01T06:07:04;100876.72;;;16.47
69857;BMP280;57147;53.582;10.112;2023-08-01T06:12:06;100908.38;;;16.53
69857;BMP280;57147;53.582;10.112;2023-08-01T06:17:07;100892.00;;;16.46
69857;BMP280;57147;53.582;10.112;2023-08-01T06:22:10;100885.09;;;16.45
69857;BMP280;57147;53.582;10.112;2023-08-01T06:27:10;100881.44;;;16.50
69857;BMP280;57147;53.582;10.112;2023-08-01T06:32:11;100876.53;;;16.52
69857;BMP280;57147;53.582;10.112;2023-08-01T06:37:14;100865.28;;;16.58
69857;BMP280;57147;53.582;10.112;2023-08-01T06:42:15;100891.38;;;16.49
69857;BMP280;57147;53.582;10.112;2023-08-01T06:47:15;100905.09;;;16.69
69857;BMP280;57147;53.582;10.112;2023-08-01T06:52:18;100911.56;;;16.68
69857;BMP280;57147;53.582;10.112;2023-08-01T06:57:19;100919.34;;;16.60
69857;BMP280;57147;53.582;10.112;2023-08-01T07:02:20;100897.63;;;16.53
69857;BMP280;57147;53.582;10.112;2023-08-01T07:07:23;100907.28;;;16.67
69857;BMP280;57147;53.582;10.112;2023-08-01T07:12:23;100874.38;;;16.45
69857;BMP280;57147;53.582;10.112;2023-08-01T07:17:24;100858.16;;;16.42
69857;BMP280;57147;53.582;10.112;2023-08-01T07:22:27;100809.19;;;16.20
69857;BMP280;57147;53.582;10.112;2023-08-01T07:27:28;100785.94;;;16.45
69857;BMP280;57147;53.582;10.112;2023-08-01T07:32:28;100749.06;;;16.42
69857;BMP280;57147;53.582;10.112;2023-08-01T07:37:32;100731.16;;;16.67
69857;BMP280;57147;53.582;10.112;2023-08-01T07:42:33;100669.25;;;16.48
69857;BMP280;57147;53.582;10.112;2023-08-01T07:47:34;100588.72;;;16.56
69857;BMP280;57147;53.582;10.112;2023-08-01T07:52:37;100462.09;;;16.59
69857;BMP280;57147;53.582;10.112;2023-08-01T07:57:37;100272.72;;;16.51
69857;BMP280;57147;53.582;10.112;2023-08-01T08:02:38;99825.31;;;16.74
69857;BMP280;57147;53.582;10.112;2023-08-01T08:07:41;99227.44;;;16.97
69857;BMP280;57147;53.582;10.112;2023-08-01T08:12:42;98112.56;;;16.90
69857;BMP280;57147;53.582;10.112;2023-08-01T08:17:43;98043.72;;;17.17
69857;BMP280;57147;53.582;10.112;2023-08-01T08:22:46;98636.13;;;17.21
69857;BMP280;57147;53.582;10.112;2023-08-01T08:27:46;98593.22;;;17.31
69857;BMP280;57147;53.582;10.112;2023-08-01T08:32:50;99307.09;;;16.93
69857;BMP280;57147;53.582;10.112;2023-08-01T08:37:53;99337.81;;;17.57
69857;BMP280;57147;53.582;10.112;2023-08-01T08:42:53;99472.41;;;17.63
69857;BMP280;57147;53.582;10.112;2023-08-01T08:47:58;99430.66;;;17.69
69857;BMP280;57147;53.582;10.112;2023-08-01T08:53:03;99139.31;;;17.89
69857;BMP280;57147;53.582;10.112;2023-08-01T08:58:05;99294.72;;;18.08
69857;BMP280;57147;53.582;10.112;2023-08-01T09:03:06;99494.13;;;17.98
69857;BMP280;57147;53.582;10.112;2023-08-01T09:08:16;99418.38;;;18.36
69857;BMP280;57147;53.582;10.112;2023-08-01T09:13:17;99477.44;;;18.26
69857;BMP280;57147;53.582;10.112;2023-08-01T09:18:18;99541.94;;;18.33
69857;BMP280;57147;53.582;10.112;2023-08-01T09:23:24;99384.13;;;18.19
69857;BMP280;57147;53.582;10.112;2023-08-01T09:28:25;98469.09;;;17.27
69857;BMP280;57147;53.582;10.112;2023-08-01T09:33:26;97890.09;;;16.67
69857;BMP280;57147;53.582;10.112;2023-08-01T09:38:33;97966.81;;;16.50
69857;BMP280;57147;53.582;10.112;2023-08-01T09:43:35;97927.25;;;16.27
69857;BMP280;57147;53.582;10.112;2023-08-01T09:48:36;98027.53;;;16.19
69857;BMP280;57147;53.582;10.112;2023-08-01T09:53:49;97872.84;;;16.41
69857;BMP280;57147;53.582;10.112;2023-08-01T09:58:50;97843.22;;;16.82
69857;BMP280;57147;53.582;10.112;2023-08-01T10:03:53;98558.81;;;17.05
69857;BMP280;57147;53.582;10.112;2023-08-01T10:08:57;98583.25;;;17.28
69857;BMP280;57147;53.582;10.112;2023-08-01T10:13:57;98776.69;;;17.44
69857;BMP280;57147;53.582;10.112;2023-08-01T10:18:59;98861.34;;;17.42
69857;BMP280;57147;53.582;10.112;2023-08-01T10:24:06;98756.31;;;17.65
69857;BMP280;57147;53.582;10.112;2023-08-01T10:29:07;98951.75;;;17.98
69857;BMP280;57147;53.582;10.112;2023-08-01T10:34:12;98924.06;;;18.29
69857;BMP280;57147;53.582;10.112;2023-08-01T10:39:20;99231.06;;;18.30
69857;BMP280;57147;53.582;10.112;2023-08-01T10:44:21;99333.22;;;18.51
69857;BMP280;57147;53.582;10.112;2023-08-01T10:49:34;98948.69;;;17.96
69857;BMP280;57147;53.582;10.112;2023-08-01T10:54:37;97691.34;;;16.79
69857;BMP280;57147;53.582;10.112;2023-08-01T10:59:39;97289.66;;;16.59
69857;BMP280;57147;53.582;10.112;2023-08-01T11:04:39;97265.69;;;16.00
69857;BMP280;57147;53.582;10.112;2023-08-01T11:09:43;97378.88;;;16.13
69857;BMP280;57147;53.582;10.112;2023-08-01T11:14:43;97106.28;;;16.18
69857;BMP280;57147;53.582;10.112;2023-08-01T11:19:44;97261.28;;;15.90
69857;BMP280;57147;53.582;10.112;2023-08-01T11:24:52;97929.78;;;15.01
69857;BMP280;57147;53.582;10.112;2023-08-01T11:29:53;97554.78;;;14.95
69857;BMP280;57147;53.582;10.112;2023-08-01T11:34:53;97030.31;;;14.49
69857;BMP280;57147;53.582;10.112;2023-08-01T11:39:59;96805.25;;;14.20
69857;BMP280;57147;53.582;10.112;2023-08-01T11:45:10;96706.47;;;14.43
69857;BMP280;57147;53.582;10.112;2023-08-01T11:50:12;96930.84;;;14.88
69857;BMP280;57147;53.582;10.112;2023-08-01T11:55:21;97309.59;;;15.13
69857;BMP280;57147;53.582;10.112;2023-08-01T12:00:23;97607.06;;;14.92
69857;BMP280;57147;53.582;10.112;2023-08-01T12:05:24;97829.69;;;15.19
69857;BMP280;57147;53.582;10.112;2023-08-01T12:10:36;97901.97;;;15.53
69857;BMP280;57147;53.582;10.112;2023-08-01T12:15:37;98165.50;;;16.24
69857;BMP280;57147;53.582;10.112;2023-08-01T12:20:38;98336.81;;;16.24
69857;BMP280;57147;53.582;10.112;2023-08-01T12:25:41;98422.13;;;16.14
69857;BMP280;57147;53.582;10.112;2023-08-01T12:30:43;98432.41;;;16.30
69857;BMP280;57147;53.582;10.112;2023-08-01T12:35:43;98355.50;;;16.41
69857;BMP280;57147;53.582;10.112;2023-08-01T12:40:47;98264.31;;;16.66
69857;BMP280;57147;53.582;10.112;2023-08-01T12:45:48;98132.66;;;16.68
69857;BMP280;57147;53.582;10.112;2023-08-01T12:50:48;97895.25;;;16.84
69857;BMP280;57147;53.582;10.112;2023-08-01T12:55:52;97349.69;;;16.78
69857;BMP280;57147;53.582;10.112;2023-08-01T13:00:53;97512.84;;;16.69
69857;BMP280;57147;53.582;10.112;2023-08-01T13:05:54;97577.13;;;16.69
69857;BMP280;57147;53.582;10.112;2023-08-01T13:10:57;97781.63;;;16.55
69857;BMP280;57147;53.582;10.112;2023-08-01T13:15:58;97688.59;;;16.32
69857;BMP280;57147;53.582;10.112;2023-08-01T13:20:58;97498.31;;;16.46
69857;BMP280;57147;53.582;10.112;2023-08-01T13:26:02;97421.34;;;16.90
69857;BMP280;57147;53.582;10.112;2023-08-01T13:31:02;97458.75;;;17.29
69857;BMP280;57147;53.582;10.112;2023-08-01T13:36:03;97741.81;;;17.46
69857;BMP280;57147;53.582;10.112;2023-08-01T13:41:06;98170.25;;;17.35
69857;BMP280;57147;53.582;10.112;2023-08-01T13:46:13;98161.53;;;17.28
69857;BMP280;57147;53.582;10.112;2023-08-01T13:51:14;98064.22;;;16.97
69857;BMP280;57147;53.582;10.112;2023-08-01T13:56:18;97772.03;;;16.81
69857;BMP280;57147;53.582;10.112;2023-08-01T14:01:18;97505.78;;;17.14
69857;BMP280;57147;53.582;10.112;2023-08-01T14:06:19;97356.91;;;17.45
69857;BMP280;57147;53.582;10.112;2023-08-01T14:11:22;97800.38;;;17.71
69857;BMP280;57147;53.582;10.112;2023-08-01T14:16:23;97884.78;;;17.67
69857;BMP280;57147;53.582;10.112;2023-08-01T14:21:23;98244.53;;;17.38
69857;BMP280;57147;53.582;10.112;2023-08-01T14:26:26;97748.81;;;16.97
69857;BMP280;57147;53.582;10.112;2023-08-01T14:31:27;97499.88;;;16.24
69857;BMP280;57147;53.582;10.112;2023-08-01T14:36:28;97379.88;;;16.03
69857;BMP280;57147;53.582;10.112;2023-08-01T14:41:31;97278.56;;;16.05
69857;BMP280;57147;53.582;10.112;2023-08-01T14:46:32;97067.38;;;16.46
69857;BMP280;57147;53.582;10.112;2023-08-01T14:51:32;97168.41;;;16.91
69857;BMP280;57147;53.582;10.112;2023-08-01T14:56:35;97547.88;;;17.17
69857;BMP280;57147;53.582;10.112;2023-08-01T15:01:36;98128.47;;;17.04
69857;BMP280;57147;53.582;10.112;2023-08-01T15:06:36;98088.47;;;17.20
69857;BMP280;57147;53.582;10.112;2023-08-01T15:11:40;98289.31;;;17.41
69857;BMP280;57147;53.582;10.112;2023-08-01T15:16:40;98428.97;;;17.65
69857;BMP280;57147;53.582;10.112;2023-08-01T15:21:41;98468.59;;;18.32
69857;BMP280;57147;53.582;10.112;2023-08-01T15:26:44;98790.22;;;18.72
69857;BMP280;57147;53.582;10.112;2023-08-01T15:31:45;99354.34;;;18.81
69857;BMP280;57147;53.582;10.112;2023-08-01T15:36:46;99332.44;;;18.43
69857;BMP280;57147;53.582;10.112;2023-08-01T15:41:49;99088.28;;;17.96
69857;BMP280;57147;53.582;10.112;2023-08-01T15:46:50;98939.16;;;17.70
69857;BMP280;57147;53.582;10.112;2023-08-01T15:51:51;98451.63;;;17.64
69857;BMP280;57147;53.582;10.112;2023-08-01T15:56:54;98792.72;;;17.66
69857;BMP280;57147;53.582;10.112;2023-08-01T16:01:55;98924.94;;;17.84
69857;BMP280;57147;53.582;10.112;2023-08-01T16:06:55;98954.81;;;17.96
69857;BMP280;57147;53.582;10.112;2023-08-01T16:11:58;98945.59;;;18.22
69857;BMP280;57147;53.582;10.112;2023-08-01T16:17:00;99321.63;;;18.26
69857;BMP280;57147;53.582;10.112;2023-08-01T16:22:01;99383.72;;;18.10
69857;BMP280;57147;53.582;10.112;2023-08-01T16:27:05;99352.38;;;18.46
69857;BMP280;57147;53.582;10.112;2023-08-01T16:32:07;99512.28;;;19.05
69857;BMP280;57147;53.582;10.112;2023-08-01T16:37:07;99504.28;;;19.26
69857;BMP280;57147;53.582;10.112;2023-08-01T16:42:10;99644.66;;;19.60
69857;BMP280;57147;53.582;10.112;2023-08-01T16:47:13;99407.03;;;19.46
69857;BMP280;57147;53.582;10.112;2023-08-01T16:52:14;99525.00;;;19.08
69857;BMP280;57147;53.582;10.112;2023-08-01T16:57:17;99254.09;;;18.80
69857;BMP280;57147;53.582;10.112;2023-08-01T17:02:18;99690.00;;;19.33
69857;BMP280;57147;53.582;10.112;2023-08-01T17:07:19;99530.84;;;19.67
69857;BMP280;57147;53.582;10.112;2023-08-01T17:12:22;99458.47;;;19.97
69857;BMP280;57147;53.582;10.112;2023-08-01T17:17:23;99408.50;;;19.78
69857;BMP280;57147;53.582;10.112;2023-08-01T17:22:24;99507.75;;;19.59
69857;BMP280;57147;53.582;10.112;2023-08-01T17:27:27;99523.13;;;19.90
69857;BMP280;57147;53.582;10.112;2023-08-01T17:32:28;99620.84;;;20.36
69857;BMP280;57147;53.582;10.112;2023-08-01T17:37:28;99624.31;;;20.30
69857;BMP280;57147;53.582;10.112;2023-08-01T17:42:32;99508.13;;;19.61
69857;BMP280;57147;53.582;10.112;2023-08-01T17:47:32;99407.81;;;19.28
69857;BMP280;57147;53.582;10.112;2023-08-01T17:52:33;99433.50;;;18.94
69857;BMP280;57147;53.582;10.112;2023-08-01T17:57:36;99628.03;;;18.43
69857;BMP280;57147;53.582;10.112;2023-08-01T18:02:37;99461.44;;;18.51
69857;BMP280;57147;53.582;10.112;2023-08-01T18:07:37;99523.03;;;18.15
69857;BMP280;57147;53.582;10.112;2023-08-01T18:12:40;99305.41;;;17.97
69857;BMP280;57147;53.582;10.112;2023-08-01T18:17:41;99462.41;;;17.60
69857;BMP280;57147;53.582;10.112;2023-08-01T18:22:42;99321.31;;;17.55
69857;BMP280;57147;53.582;10.112;2023-08-01T18:27:45;99131.97;;;17.58
69857;BMP280;57147;53.582;10.112;2023-08-01T18:32:46;99255.75;;;17.52
69857;BMP280;57147;53.582;10.112;2023-08-01T18:37:46;99179.44;;;17.50
69857;BMP280;57147;53.582;10.112;2023-08-01T18:42:49;99075.19;;;17.41
69857;BMP280;57147;53.582;10.112;2023-08-01T18:47:50;99177.88;;;17.35
69857;BMP280;57147;53.582;10.112;2023-08-01T18:52:51;99117.28;;;17.27
69857;BMP280;57147;53.582;10.112;2023-08-01T18:57:57;98977.44;;;17.21
69857;BMP280;57147;53.582;10.112;2023-08-01T19:02:57;99281.03;;;16.97
69857;BMP280;57147;53.582;10.112;2023-08-01T19:07:58;99062.78;;;17.08
69857;BMP280;57147;53.582;10.112;2023-08-01T19:13:01;99178.47;;;17.07
69857;BMP280;57147;53.582;10.112;2023-08-01T19:18:02;99091.03;;;16.81
69857;BMP280;57147;53.582;10.112;2023-08-01T19:23:02;99298.97;;;16.86
69857;BMP280;57147;53.582;10.112;2023-08-01T19:28:06;98934.88;;;17.02
69857;BMP280;57147;53.582;10.112;2023-08-01T19:33:07;99051.66;;;16.99
69857;BMP280;57147;53.582;10.112;2023-08-01T19:38:07;99107.19;;;16.92
69857;BMP280;57147;53.582;10.112;2023-08-01T19:43:11;99169.13;;;16.80
69857;BMP280;57147;53.582;10.112;2023-08-01T19:48:11;99081.06;;;16.75
69857;BMP280;57147;53.582;10.112;2023-08-01T19:53:12;99114.00;;;16.79
69857;BMP280;57147;53.582;10.112;2023-08-01T19:58:15;99063.44;;;16.74
69857;BMP280;57147;53.582;10.112;2023-08-01T20:03:17;99034.22;;;16.54
69857;BMP280;57147;53.582;10.112;2023-08-01T20:08:18;98987.13;;;16.50
69857;BMP280;57147;53.582;10.112;2023-08-01T20:13:21;99082.38;;;16.47
69857;BMP280;57147;53.582;10.112;2023-08-01T20:18:22;99092.31;;;16.47
69857;BMP280;57147;53.582;10.112;2023-08-01T20:23:22;99103.19;;;16.64
69857;BMP280;57147;53.582;10.112;2023-08-01T20:28:25;99183.56;;;16.64
69857;BMP280;57147;53.582;10.112;2023-08-01T20:33:26;99273.03;;;16.56
69857;BMP280;57147;53.582;10.112;2023-08-01T20:38:27;99110.69;;;16.45
69857;BMP280;57147;53.582;10.112;2023-08-01T20:43:30;99122.28;;;16.59
69857;BMP280;57147;53.582;10.112;2023-08-01T20:48:31;99098.56;;;16.61
69857;BMP280;57147;53.582;10.112;2023-08-01T20:53:31;99113.03;;;16.53
69857;BMP280;57147;53.582;10.112;2023-08-01T20:58:35;99015.84;;;16.56
69857;BMP280;57147;53.582;10.112;2023-08-01T21:03:35;98976.84;;;16.59
69857;BMP280;57147;53.582;10.112;2023-08-01T21:08:36;99149.53;;;16.69
69857;BMP280;57147;53.582;10.112;2023-08-01T21:13:41;99133.03;;;16.67
69857;BMP280;57147;53.582;10.112;2023-08-01T21:18:42;99182.69;;;16.53
69857;BMP280;57147;53.582;10.112;2023-08-01T21:23:43;99013.88;;;16.43
69857;BMP280;57147;53.582;10.112;2023-08-01T21:28:46;99079.34;;;16.52
69857;BMP280;57147;53.582;10.112;2023-08-01T21:33:47;99212.91;;;16.50
69857;BMP280;57147;53.582;10.112;2023-08-01T21:38:48;99143.66;;;16.52
69857;BMP280;57147;53.582;10.112;2023-08-01T21:43:51;99061.50;;;16.16
69857;BMP280;57147;53.582;10.112;2023-08-01T21:48:52;99151.06;;;16.26
69857;BMP280;57147;53.582;10.112;2023-08-01T21:53:52;99013.00;;;16.32
69857;BMP280;57147;53.582;10.112;2023-08-01T21:58:56;99075.00;;;16.30
69857;BMP280;57147;53.582;10.112;2023-08-01T22:03:56;99073.00;;;16.20
69857;BMP280;57147;53.582;10.112;2023-08-01T22:08:57;98953.22;;;16.13
69857;BMP280;57147;53.582;10.112;2023-08-01T22:14:00;98995.34;;;15.69
69857;BMP280;57147;53.582;10.112;2023-08-01T22:19:01;99009.53;;;16.24
69857;BMP280;57147;53.582;10.112;2023-08-01T22:24:01;98971.97;;;16.10
69857;BMP280;57147;53.582;10.112;2023-08-01T22:29:05;99017.56;;;16.24
69857;BMP280;57147;53.582;10.112;2023-08-01T22:34:06;99028.28;;;16.24
69857;BMP280;57147;53.582;10.112;2023-08-01T22:39:07;99002.63;;;16.23
69857;BMP280;57147;53.582;10.112;2023-08-01T22:44:10;99067.34;;;16.32
69857;BMP280;57147;53.582;10.112;2023-08-01T22:49:11;99111.69;;;16.26
69857;BMP280;57147;53.582;10.112;2023-08-01T22:54:12;99009.91;;;16.22
69857;BMP280;57147;53.582;10.112;2023-08-01T22:59:15;99040.34;;;16.00
69857;BMP280;57147;53.582;10.112;2023-08-01T23:04:16;99101.78;;;16.30
69857;BMP280;57147;53.582;10.112;2023-08-01T23:09:17;99070.75;;;16.26
69857;BMP280;57147;53.582;10.112;2023-08-01T23:14:20;99069.88;;;16.14
69857;BMP280;57147;53.582;10.112;2023-08-01T23:19:21;98906.31;;;16.34
69857;BMP280;57147;53.582;10.112;2023-08-01T23:24:21;99011.03;;;16.21
69857;BMP280;57147;53.582;10.112;2023-08-01T23:29:24;99036.38;;;16.31
69857;BMP280;57147;53.582;10.112;2023-08-01T23:34:25;98944.50;;;16.20
69857;BMP280;57147;53.582;10.112;2023-08-01T23:39:30;99040.91;;;16.27
69857;BMP280;57147;53.582;10.112;2023-08-01T23:44:33;98983.38;;;16.00
69857;BMP280;57147;53.582;10.112;2023-08-01T23:49:34;98524.63;;;16.01
69857;BMP280;57147;53.582;10.112;2023-08-01T23:54:35;98054.56;;;15.84
69857;BMP280;57147;53.582;10.112;2023-08-01T23:59:38;97752.97;;;15.57
